sensor_id;sensor_type;location;lat;lon;timestamp;temperature;humidity
8402;DHT22;4238;48.404;9.498;2023-12-28T05:02:35;3.50;86.00
8402;DHT22;4238;48.404;9.498;2023-12-28T05:05:02;3.60;99.90
8402;DHT22;4238;48.404;9.498;2023-12-28T05:07:29;3.80;99.90
8402;DHT22;4238;48.404;9.498;2023-12-28T05:09:56;4.00;99.90
8402;DHT22;4238;48.404;9.498;2023-12-28T05:12:23;4.30;87.00
8402;DHT22;4238;48.404;9.498;2023-12-28T05:14:49;4.40;99.90
8402;DHT22;4238;48.404;9.498;2023-12-28T05:17:16;4.20;99.90
8402;DHT22;4238;48.404;9.498;2023-12-28T05:19:45;3.90;99.90
8402;DHT22;4238;48.404;9.498;2023-12-28T05:22:12;3.60;99.90
8402;DHT22;4238;48.404;9.498;2023-12-28T05:24:39;3.40;1.00
8402;DHT22;4238;48.404;9.498;2023-12-28T05:27:06;3.30;8.90
8402;DHT22;4238;48.404;9.498;2023-12-28T05:29:33;3.20;1.00
8402;DHT22;4238;48.404;9.498;2023-12-28T05:32:00;3.10;1.00
8402;DHT22;4238;48.404;9.498;2023-12-28T05:34:27;3.00;1.00
8402;DHT22;4238;48.404;9.498;2023-12-28T05:36:55;2.90;15.50
8402;DHT22;4238;48.404;9.498;2023-12-28T05:39:22;3.00;1.00
8402;DHT22;4238;48.404;9.498;2023-12-28T05:41:48;3.40;1.00
8402;DHT22;4238;48.404;9.498;2023-12-28T05:44:16;4.00;1.00
8402;DHT22;4238;48.404;9.498;2023-12-28T05:46:43;4.40;1.00
8402;DHT22;4238;48.404;9.498;2023-12-28T05:49:10;4.70;99.90
8402;DHT22;4238;48.404;9.498;2023-12-28T05:51:40;4.80;99.90
8402;DHT22;4238;48.404;9.498;2023-12-28T05:54:10;4.80;1.00
8402;DHT22;4238;48.404;9.498;2023-12-28T05:56:37;4.70;99.90
8402;DHT22;4238;48.404;9.498;2023-12-28T05:59:04;4.60;99.90
8402;DHT22;4238;48.404;9.498;2023-12-28T06:01:32;4.50;99.90
8402;DHT22;4238;48.404;9.498;2023-12-28T06:03:59;4.30;2.50
8402;DHT22;4238;48.404;9.498;2023-12-28T06:06:26;4.20;1.00
8402;DHT22;4238;48.404;9.498;2023-12-28T06:08:53;3.90;1.00
8402;DHT22;4238;48.404;9.498;2023-12-28T06:11:22;3.60;1.00
8402;DHT22;4238;48.404;9.498;2023-12-28T06:13:48;3.50;1.00
8402;DHT22;4238;48.404;9.498;2023-12-28T06:16:15;3.50;99.90
8402;DHT22;4238;48.404;9.498;2023-12-28T06:18:42;3.50;1.00
8402;DHT22;4238;48.404;9.498;2023-12-28T06:21:09;3.30;1.00
8402;DHT22;4238;48.404;9.498;2023-12-28T06:23:36;3.10;1.00
8402;DHT22;4238;48.404;9.498;2023-12-28T06:26:06;2.90;1.00
8402;DHT22;4238;48.404;9.498;2023-12-28T06:28:34;3.00;99.90
8402;DHT22;4238;48.404;9.498;2023-12-28T06:31:01;2.90;1.00
8402;DHT22;4238;48.404;9.498;2023-12-28T06:33:30;3.00;1.00
8402;DHT22;4238;48.404;9.498;2023-12-28T06:35:56;3.00;1.00
8402;DHT22;4238;48.404;9.498;2023-12-28T06:38:24;3.00;1.00
8402;DHT22;4238;48.404;9.498;2023-12-28T06:40:51;2.90;1.00
8402;DHT22;4238;48.404;9.498;2023-12-28T06:43:18;3.00;1.00
8402;DHT22;4238;48.404;9.498;2023-12-28T06:45:46;3.00;1.00
8402;DHT22;4238;48.404;9.498;2023-12-28T06:48:13;2.90;1.00
8402;DHT22;4238;48.404;9.498;2023-12-28T06:50:40;3.10;1.00
8402;DHT22;4238;48.404;9.498;2023-12-28T06:53:06;3.40;99.90
8402;DHT22;4238;48.404;9.498;2023-12-28T06:55:33;3.70;1.00
8402;DHT22;4238;48.404;9.498;2023-12-28T06:58:01;3.90;1.00
8402;DHT22;4238;48.404;9.498;2023-12-28T07:00:28;4.00;99.90
8402;DHT22;4238;48.404;9.498;2023-12-28T07:02:56;4.30;99.90
8402;DHT22;4238;48.404;9.498;2023-12-28T07:05:23;4.50;99.90
8402;DHT22;4238;48.404;9.498;2023-12-28T07:07:50;4.70;99.90
8402;DHT22;4238;48.404;9.498;2023-12-28T07:10:17;4.90;1.00
8402;DHT22;4238;48.404;9.498;2023-12-28T07:12:43;5.00;99.90
8402;DHT22;4238;48.404;9.498;2023-12-28T07:15:10;5.10;99.90
8402;DHT22;4238;48.404;9.498;2023-12-28T07:17:39;5.10;1.00
8402;DHT22;4238;48.404;9.498;2023-12-28T07:20:08;5.00;1.00
8402;DHT22;4238;48.404;9.498;2023-12-28T07:22:36;4.70;1.00
8402;DHT22;4238;48.404;9.498;2023-12-28T07:25:04;4.40;99.90
8402;DHT22;4238;48.404;9.498;2023-12-28T07:27:31;4.20;99.90
8402;DHT22;4238;48.404;9.498;2023-12-28T07:29:58;4.10;1.00
8402;DHT22;4238;48.404;9.498;2023-12-28T07:32:25;3.80;1.00
8402;DHT22;4238;48.404;9.498;2023-12-28T07:34:52;3.80;89.80
8402;DHT22;4238;48.404;9.498;2023-12-28T07:37:20;3.80;99.90
8402;DHT22;4238;48.404;9.498;2023-12-28T07:39:47;3.80;1.00
8402;DHT22;4238;48.404;9.498;2023-12-28T07:42:14;3.80;99.90
8402;DHT22;4238;48.404;9.498;2023-12-28T07:44:41;3.80;1.00
8402;DHT22;4238;48.404;9.498;2023-12-28T07:47:08;3.90;1.00
8402;DHT22;4238;48.404;9.498;2023-12-28T07:49:35;4.00;1.00
8402;DHT22;4238;48.404;9.498;2023-12-28T07:52:02;4.00;1.00
8402;DHT22;4238;48.404;9.498;2023-12-28T07:54:30;4.00;1.00
8402;DHT22;4238;48.404;9.498;2023-12-28T07:56:57;4.00;1.00
8402;DHT22;4238;48.404;9.498;2023-12-28T07:59:24;4.00;1.00
8402;DHT22;4238;48.404;9.498;2023-12-28T08:01:51;4.00;1.00
8402;DHT22;4238;48.404;9.498;2023-12-28T08:04:18;4.10;1.00
8402;DHT22;4238;48.404;9.498;2023-12-28T08:06:44;4.10;1.00
8402;DHT22;4238;48.404;9.498;2023-12-28T08:09:11;4.10;1.00
8402;DHT22;4238;48.404;9.498;2023-12-28T08:11:39;4.10;1.00
8402;DHT22;4238;48.404;9.498;2023-12-28T08:14:06;4.10;1.00
8402;DHT22;4238;48.404;9.498;2023-12-28T08:16:33;4.10;1.00
8402;DHT22;4238;48.404;9.498;2023-12-28T08:19:00;4.20;1.00
8402;DHT22;4238;48.404;9.498;2023-12-28T08:21:27;4.30;1.00
8402;DHT22;4238;48.404;9.498;2023-12-28T08:23:54;4.40;1.00
8402;DHT22;4238;48.404;9.498;2023-12-28T08:26:21;4.50;1.00
8402;DHT22;4238;48.404;9.498;2023-12-28T08:28:49;4.60;1.00
8402;DHT22;4238;48.404;9.498;2023-12-28T08:31:16;4.60;1.00
8402;DHT22;4238;48.404;9.498;2023-12-28T08:33:43;4.50;1.00
8402;DHT22;4238;48.404;9.498;2023-12-28T08:36:09;4.60;1.00
8402;DHT22;4238;48.404;9.498;2023-12-28T08:38:37;4.60;1.00
8402;DHT22;4238;48.404;9.498;2023-12-28T08:41:04;4.60;1.00
8402;DHT22;4238;48.404;9.498;2023-12-28T08:43:34;4.60;1.00
8402;DHT22;4238;48.404;9.498;2023-12-28T08:46:03;4.50;1.00
8402;DHT22;4238;48.404;9.498;2023-12-28T08:48:29;4.70;1.00
8402;DHT22;4238;48.404;9.498;2023-12-28T08:50:56;4.70;1.00
8402;DHT22;4238;48.404;9.498;2023-12-28T08:53:23;4.70;1.00
8402;DHT22;4238;48.404;9.498;2023-12-28T08:55:50;4.80;1.00
8402;DHT22;4238;48.404;9.498;2023-12-28T08:58:17;4.80;1.00
8402;DHT22;4238;48.404;9.498;2023-12-28T09:00:44;4.70;1.00
8402;DHT22;4238;48.404;9.498;2023-12-28T09:03:13;4.80;1.00
8402;DHT22;4238;48.404;9.498;2023-12-28T09:05:40;4.80;1.00
8402;DHT22;4238;48.404;9.498;2023-12-28T09:08:07;4.90;1.00
8402;DHT22;4238;48.404;9.498;2023-12-28T09:10:34;4.90;1.00
8402;DHT22;4238;48.404;9.498;2023-12-28T09:13:03;5.00;1.00
8402;DHT22;4238;48.404;9.498;2023-12-28T09:15:30;4.90;1.00
8402;DHT22;4238;48.404;9.498;2023-12-28T09:17:57;4.80;1.00
8402;DHT22;4238;48.404;9.498;2023-12-28T09:20:25;4.90;1.00
8402;DHT22;4238;48.404;9.498;2023-12-28T09:22:52;4.90;1.00
8402;DHT22;4238;48.404;9.498;2023-12-28T09:25:21;4.80;1.00
8402;DHT22;4238;48.404;9.498;2023-12-28T09:27:48;5.00;99.90
8402;DHT22;4238;48.404;9.498;2023-12-28T09:30:15;5.20;68.00
8402;DHT22;4238;48.404;9.498;2023-12-28T09:32:42;5.40;1.00
8402;DHT22;4238;48.404;9.498;2023-12-28T09:35:09;5.60;1.00
8402;DHT22;4238;48.404;9.498;2023-12-28T09:37:37;5.70;1.00
8402;DHT22;4238;48.404;9.498;2023-12-28T09:40:05;5.80;1.00
8402;DHT22;4238;48.404;9.498;2023-12-28T09:42:46;5.80;1.00
8402;DHT22;4238;48.404;9.498;2023-12-28T09:45:15;5.80;1.00
8402;DHT22;4238;48.404;9.498;2023-12-28T09:47:42;5.70;1.00
8402;DHT22;4238;48.404;9.498;2023-12-28T09:50:10;5.70;99.90
8402;DHT22;4238;48.404;9.498;2023-12-28T09:52:38;5.60;99.90
8402;DHT22;4238;48.404;9.498;2023-12-28T09:55:05;5.70;99.90
8402;DHT22;4238;48.404;9.498;2023-12-28T09:57:33;5.70;99.90
8402;DHT22;4238;48.404;9.498;2023-12-28T10:00:01;5.80;99.90
8402;DHT22;4238;48.404;9.498;2023-12-28T10:02:30;5.90;99.90
8402;DHT22;4238;48.404;9.498;2023-12-28T10:04:57;5.90;99.90
8402;DHT22;4238;48.404;9.498;2023-12-28T10:07:24;5.90;96.90
8402;DHT22;4238;48.404;9.498;2023-12-28T10:09:53;5.90;99.90
8402;DHT22;4238;48.404;9.498;2023-12-28T10:12:20;5.90;1.00
8402;DHT22;4238;48.404;9.498;2023-12-28T10:14:47;6.00;99.90
8402;DHT22;4238;48.404;9.498;2023-12-28T10:17:14;6.10;99.90
8402;DHT22;4238;48.404;9.498;2023-12-28T10:19:41;6.20;99.90
8402;DHT22;4238;48.404;9.498;2023-12-28T10:22:13;6.30;99.90
8402;DHT22;4238;48.404;9.498;2023-12-28T10:24:43;6.30;99.90
8402;DHT22;4238;48.404;9.498;2023-12-28T10:27:13;6.40;99.90
8402;DHT22;4238;48.404;9.498;2023-12-28T10:29:39;6.50;99.90
8402;DHT22;4238;48.404;9.498;2023-12-28T10:32:07;6.50;99.90
8402;DHT22;4238;48.404;9.498;2023-12-28T10:34:34;6.50;1.00
8402;DHT22;4238;48.404;9.498;2023-12-28T10:37:01;6.50;99.90
8402;DHT22;4238;48.404;9.498;2023-12-28T10:39:31;6.50;1.00
8402;DHT22;4238;48.404;9.498;2023-12-28T10:42:00;6.50;1.00
8402;DHT22;4238;48.404;9.498;2023-12-28T10:44:35;6.50;99.90
8402;DHT22;4238;48.404;9.498;2023-12-28T10:47:06;6.50;35.40
8402;DHT22;4238;48.404;9.498;2023-12-28T10:49:38;6.60;99.90
8402;DHT22;4238;48.404;9.498;2023-12-28T10:52:07;6.70;93.30
8402;DHT22;4238;48.404;9.498;2023-12-28T10:54:41;6.80;99.90
8402;DHT22;4238;48.404;9.498;2023-12-28T10:57:16;6.90;1.00
8402;DHT22;4238;48.404;9.498;2023-12-28T10:59:54;7.00;1.00
8402;DHT22;4238;48.404;9.498;2023-12-28T11:02:28;7.10;95.50
8402;DHT22;4238;48.404;9.498;2023-12-28T11:04:59;7.20;1.00
8402;DHT22;4238;48.404;9.498;2023-12-28T11:07:27;7.20;99.90
8402;DHT22;4238;48.404;9.498;2023-12-28T11:10:00;7.20;99.90
8402;DHT22;4238;48.404;9.498;2023-12-28T11:12:27;7.20;99.90
8402;DHT22;4238;48.404;9.498;2023-12-28T11:14:57;7.10;1.00
8402;DHT22;4238;48.404;9.498;2023-12-28T11:17:25;7.10;1.00
8402;DHT22;4238;48.404;9.498;2023-12-28T11:19:52;7.10;1.00
8402;DHT22;4238;48.404;9.498;2023-12-28T11:22:20;7.10;1.00
8402;DHT22;4238;48.404;9.498;2023-12-28T11:24:47;7.10;99.90
8402;DHT22;4238;48.404;9.498;2023-12-28T11:27:14;7.10;1.00
8402;DHT22;4238;48.404;9.498;2023-12-28T11:29:41;7.20;1.00
8402;DHT22;4238;48.404;9.498;2023-12-28T11:32:11;7.30;1.00
8402;DHT22;4238;48.404;9.498;2023-12-28T11:34:38;7.40;1.00
8402;DHT22;4238;48.404;9.498;2023-12-28T11:37:06;7.40;56.20
8402;DHT22;4238;48.404;9.498;2023-12-28T11:39:35;7.50;1.00
8402;DHT22;4238;48.404;9.498;2023-12-28T11:42:05;7.60;99.90
8402;DHT22;4238;48.404;9.498;2023-12-28T11:44:37;7.70;99.90
8402;DHT22;4238;48.404;9.498;2023-12-28T11:47:12;7.90;1.00
8402;DHT22;4238;48.404;9.498;2023-12-28T11:49:39;8.00;1.00
8402;DHT22;4238;48.404;9.498;2023-12-28T11:52:07;8.10;1.00
8402;DHT22;4238;48.404;9.498;2023-12-28T11:54:35;8.30;1.00
8402;DHT22;4238;48.404;9.498;2023-12-28T11:57:01;8.40;1.00
8402;DHT22;4238;48.404;9.498;2023-12-28T11:59:28;8.50;1.00
8402;DHT22;4238;48.404;9.498;2023-12-28T12:01:56;8.60;1.00
8402;DHT22;4238;48.404;9.498;2023-12-28T12:04:24;8.60;1.00
8402;DHT22;4238;48.404;9.498;2023-12-28T12:06:51;8.60;99.90
8402;DHT22;4238;48.404;9.498;2023-12-28T12:09:19;8.60;99.90
8402;DHT22;4238;48.404;9.498;2023-12-28T12:11:48;8.70;99.90
8402;DHT22;4238;48.404;9.498;2023-12-28T12:14:15;8.70;1.00
8402;DHT22;4238;48.404;9.498;2023-12-28T12:16:42;8.70;1.00
8402;DHT22;4238;48.404;9.498;2023-12-28T12:19:09;8.80;1.00
8402;DHT22;4238;48.404;9.498;2023-12-28T12:21:38;8.90;1.00
8402;DHT22;4238;48.404;9.498;2023-12-28T12:24:05;8.80;1.00
8402;DHT22;4238;48.404;9.498;2023-12-28T12:26:32;8.80;1.00
8402;DHT22;4238;48.404;9.498;2023-12-28T12:29:01;8.70;1.00
8402;DHT22;4238;48.404;9.498;2023-12-28T12:31:29;8.50;99.90
8402;DHT22;4238;48.404;9.498;2023-12-28T12:33:56;8.50;99.90
8402;DHT22;4238;48.404;9.498;2023-12-28T12:36:22;8.50;1.00
8402;DHT22;4238;48.404;9.498;2023-12-28T12:38:51;8.20;99.90
8402;DHT22;4238;48.404;9.498;2023-12-28T12:41:17;8.10;99.90
8402;DHT22;4238;48.404;9.498;2023-12-28T12:43:45;8.00;1.00
8402;DHT22;4238;48.404;9.498;2023-12-28T12:46:12;8.00;1.00
8402;DHT22;4238;48.404;9.498;2023-12-28T12:48:39;7.90;1.00
8402;DHT22;4238;48.404;9.498;2023-12-28T12:51:06;7.90;1.00
8402;DHT22;4238;48.404;9.498;2023-12-28T12:53:34;7.80;1.00
8402;DHT22;4238;48.404;9.498;2023-12-28T12:56:04;7.80;99.90
8402;DHT22;4238;48.404;9.498;2023-12-28T12:58:31;7.60;1.00
8402;DHT22;4238;48.404;9.498;2023-12-28T13:00:58;7.70;99.90
8402;DHT22;4238;48.404;9.498;2023-12-28T13:03:27;7.60;1.00
8402;DHT22;4238;48.404;9.498;2023-12-28T13:05:55;7.70;99.90
8402;DHT22;4238;48.404;9.498;2023-12-28T13:08:22;7.70;1.00
8402;DHT22;4238;48.404;9.498;2023-12-28T13:10:49;7.60;99.90
8402;DHT22;4238;48.404;9.498;2023-12-28T13:13:17;7.70;77.80
8402;DHT22;4238;48.404;9.498;2023-12-28T13:15:44;7.70;99.90
8402;DHT22;4238;48.404;9.498;2023-12-28T13:18:11;7.70;99.90
8402;DHT22;4238;48.404;9.498;2023-12-28T13:20:38;7.60;99.90
8402;DHT22;4238;48.404;9.498;2023-12-28T13:23:05;7.60;99.90
8402;DHT22;4238;48.404;9.498;2023-12-28T13:25:32;7.70;99.90
8402;DHT22;4238;48.404;9.498;2023-12-28T13:27:59;7.60;1.00
8402;DHT22;4238;48.404;9.498;2023-12-28T13:30:27;7.60;1.00
8402;DHT22;4238;48.404;9.498;2023-12-28T13:32:54;7.50;1.00
8402;DHT22;4238;48.404;9.498;2023-12-28T13:35:22;7.50;1.00
8402;DHT22;4238;48.404;9.498;2023-12-28T13:37:49;7.40;1.00
8402;DHT22;4238;48.404;9.498;2023-12-28T13:40:15;7.40;1.00
8402;DHT22;4238;48.404;9.498;2023-12-28T13:42:42;7.40;1.00
8402;DHT22;4238;48.404;9.498;2023-12-28T13:45:09;7.50;1.00
8402;DHT22;4238;48.404;9.498;2023-12-28T13:47:37;7.50;1.00
8402;DHT22;4238;48.404;9.498;2023-12-28T13:50:05;7.40;1.00
8402;DHT22;4238;48.404;9.498;2023-12-28T13:52:32;7.40;1.00
8402;DHT22;4238;48.404;9.498;2023-12-28T13:54:59;7.50;1.00
8402;DHT22;4238;48.404;9.498;2023-12-28T13:57:26;7.60;1.00
8402;DHT22;4238;48.404;9.498;2023-12-28T13:59:53;7.40;1.00
8402;DHT22;4238;48.404;9.498;2023-12-28T14:02:21;7.40;17.60
8402;DHT22;4238;48.404;9.498;2023-12-28T14:04:53;7.30;35.00
8402;DHT22;4238;48.404;9.498;2023-12-28T14:07:21;7.20;41.70
8402;DHT22;4238;48.404;9.498;2023-12-28T14:09:51;7.10;56.30
8402;DHT22;4238;48.404;9.498;2023-12-28T14:12:18;7.10;56.60
8402;DHT22;4238;48.404;9.498;2023-12-28T14:14:45;7.00;60.30
8402;DHT22;4238;48.404;9.498;2023-12-28T14:17:12;6.90;78.60
8402;DHT22;4238;48.404;9.498;2023-12-28T14:19:41;6.90;81.80
8402;DHT22;4238;48.404;9.498;2023-12-28T14:22:16;6.80;91.40
8402;DHT22;4238;48.404;9.498;2023-12-28T14:24:47;6.80;92.80
8402;DHT22;4238;48.404;9.498;2023-12-28T14:27:15;6.80;99.20
8402;DHT22;4238;48.404;9.498;2023-12-28T14:29:43;6.70;98.50
8402;DHT22;4238;48.404;9.498;2023-12-28T14:32:11;6.70;98.40
8402;DHT22;4238;48.404;9.498;2023-12-28T14:34:40;6.70;99.20
8402;DHT22;4238;48.404;9.498;2023-12-28T14:37:07;6.80;99.90
8402;DHT22;4238;48.404;9.498;2023-12-28T14:39:37;6.80;99.50
8402;DHT22;4238;48.404;9.498;2023-12-28T14:42:05;6.70;99.90
8402;DHT22;4238;48.404;9.498;2023-12-28T14:44:34;6.70;99.90
8402;DHT22;4238;48.404;9.498;2023-12-28T14:47:02;6.70;99.90
8402;DHT22;4238;48.404;9.498;2023-12-28T14:49:35;6.70;99.90
8402;DHT22;4238;48.404;9.498;2023-12-28T14:52:03;6.60;99.90
8402;DHT22;4238;48.404;9.498;2023-12-28T14:54:31;6.60;99.90
8402;DHT22;4238;48.404;9.498;2023-12-28T14:56:59;6.50;99.90
8402;DHT22;4238;48.404;9.498;2023-12-28T14:59:26;6.60;99.90
8402;DHT22;4238;48.404;9.498;2023-12-28T15:01:53;6.60;99.90
8402;DHT22;4238;48.404;9.498;2023-12-28T15:04:20;6.60;99.90
8402;DHT22;4238;48.404;9.498;2023-12-28T15:06:47;6.60;99.90
8402;DHT22;4238;48.404;9.498;2023-12-28T15:09:13;6.60;99.90
8402;DHT22;4238;48.404;9.498;2023-12-28T15:11:41;6.60;99.90
8402;DHT22;4238;48.404;9.498;2023-12-28T15:14:19;6.70;99.90
8402;DHT22;4238;48.404;9.498;2023-12-28T15:16:46;6.70;99.90
8402;DHT22;4238;48.404;9.498;2023-12-28T15:19:14;6.70;99.90
8402;DHT22;4238;48.404;9.498;2023-12-28T15:21:41;6.80;99.90
8402;DHT22;4238;48.404;9.498;2023-12-28T15:24:09;6.80;99.90
8402;DHT22;4238;48.404;9.498;2023-12-28T15:26:36;6.80;99.90
8402;DHT22;4238;48.404;9.498;2023-12-28T15:29:03;6.80;99.90
8402;DHT22;4238;48.404;9.498;2023-12-28T15:31:31;6.80;99.90
8402;DHT22;4238;48.404;9.498;2023-12-28T15:33:58;6.80;99.90
8402;DHT22;4238;48.404;9.498;2023-12-28T15:36:25;6.80;99.90
8402;DHT22;4238;48.404;9.498;2023-12-28T15:38:52;6.80;99.90
8402;DHT22;4238;48.404;9.498;2023-12-28T15:41:19;6.80;99.90
8402;DHT22;4238;48.404;9.498;2023-12-28T15:43:45;6.70;99.90
8402;DHT22;4238;48.404;9.498;2023-12-28T15:46:12;6.60;99.90
8402;DHT22;4238;48.404;9.498;2023-12-28T15:48:41;6.60;99.90
8402;DHT22;4238;48.404;9.498;2023-12-28T15:51:08;6.50;99.90
8402;DHT22;4238;48.404;9.498;2023-12-28T15:53:35;6.50;99.90
8402;DHT22;4238;48.404;9.498;2023-12-28T15:56:02;6.50;99.90
8402;DHT22;4238;48.404;9.498;2023-12-28T15:58:29;6.30;99.90
8402;DHT22;4238;48.404;9.498;2023-12-28T16:00:56;6.10;99.90
8402;DHT22;4238;48.404;9.498;2023-12-28T16:03:23;6.10;99.90
8402;DHT22;4238;48.404;9.498;2023-12-28T16:05:51;6.10;99.90
8402;DHT22;4238;48.404;9.498;2023-12-28T16:08:18;5.90;99.20
8402;DHT22;4238;48.404;9.498;2023-12-28T16:10:45;6.00;99.10
8402;DHT22;4238;48.404;9.498;2023-12-28T16:13:12;5.80;99.00
8402;DHT22;4238;48.404;9.498;2023-12-28T16:15:39;5.80;98.10
8402;DHT22;4238;48.404;9.498;2023-12-28T16:18:07;5.70;97.30
8402;DHT22;4238;48.404;9.498;2023-12-28T16:20:35;5.70;97.30
8402;DHT22;4238;48.404;9.498;2023-12-28T16:23:04;5.60;99.90
8402;DHT22;4238;48.404;9.498;2023-12-28T16:25:31;5.50;97.90
8402;DHT22;4238;48.404;9.498;2023-12-28T16:27:59;5.40;99.90
8402;DHT22;4238;48.404;9.498;2023-12-28T16:30:26;5.40;99.90
8402;DHT22;4238;48.404;9.498;2023-12-28T16:32:53;5.40;97.90
8402;DHT22;4238;48.404;9.498;2023-12-28T16:35:20;5.30;99.90
8402;DHT22;4238;48.404;9.498;2023-12-28T16:37:47;5.30;99.90
8402;DHT22;4238;48.404;9.498;2023-12-28T16:40:16;5.30;99.90
8402;DHT22;4238;48.404;9.498;2023-12-28T16:42:42;5.40;99.40
8402;DHT22;4238;48.404;9.498;2023-12-28T16:45:09;5.40;99.90
8402;DHT22;4238;48.404;9.498;2023-12-28T16:47:36;5.40;94.30
8402;DHT22;4238;48.404;9.498;2023-12-28T16:50:03;5.50;93.30
8402;DHT22;4238;48.404;9.498;2023-12-28T16:52:30;5.60;92.80
8402;DHT22;4238;48.404;9.498;2023-12-28T16:54:57;5.50;88.20
8402;DHT22;4238;48.404;9.498;2023-12-28T16:57:25;5.50;90.00
8402;DHT22;4238;48.404;9.498;2023-12-28T16:59:53;5.60;90.70
8402;DHT22;4238;48.404;9.498;2023-12-28T17:02:20;5.70;76.70
8402;DHT22;4238;48.404;9.498;2023-12-28T17:04:49;5.70;80.20
8402;DHT22;4238;48.404;9.498;2023-12-28T17:07:16;5.70;82.80
8402;DHT22;4238;48.404;9.498;2023-12-28T17:09:43;5.70;80.00
8402;DHT22;4238;48.404;9.498;2023-12-28T17:12:13;5.70;77.60
8402;DHT22;4238;48.404;9.498;2023-12-28T17:14:46;5.70;80.10
8402;DHT22;4238;48.404;9.498;2023-12-28T17:17:13;5.80;81.10
8402;DHT22;4238;48.404;9.498;2023-12-28T17:19:41;5.80;77.40
8402;DHT22;4238;48.404;9.498;2023-12-28T17:22:08;5.90;78.00
8402;DHT22;4238;48.404;9.498;2023-12-28T17:24:46;5.90;73.70
8402;DHT22;4238;48.404;9.498;2023-12-28T17:27:21;5.90;74.30
8402;DHT22;4238;48.404;9.498;2023-12-28T17:29:54;5.80;73.50
8402;DHT22;4238;48.404;9.498;2023-12-28T17:32:29;5.90;74.80
8402;DHT22;4238;48.404;9.498;2023-12-28T17:34:57;5.90;80.20
8402;DHT22;4238;48.404;9.498;2023-12-28T17:37:25;5.80;76.70
8402;DHT22;4238;48.404;9.498;2023-12-28T17:39:52;5.80;83.90
8402;DHT22;4238;48.404;9.498;2023-12-28T17:42:23;5.90;81.20
8402;DHT22;4238;48.404;9.498;2023-12-28T17:44:57;5.90;79.30
8402;DHT22;4238;48.404;9.498;2023-12-28T17:47:27;5.80;83.60
8402;DHT22;4238;48.404;9.498;2023-12-28T17:49:56;5.80;82.40
8402;DHT22;4238;48.404;9.498;2023-12-28T17:52:24;5.90;89.50
8402;DHT22;4238;48.404;9.498;2023-12-28T17:54:53;5.90;84.90
8402;DHT22;4238;48.404;9.498;2023-12-28T17:57:20;5.90;90.10
8402;DHT22;4238;48.404;9.498;2023-12-28T17:59:47;6.00;88.00
8402;DHT22;4238;48.404;9.498;2023-12-28T18:02:16;5.90;84.90
8402;DHT22;4238;48.404;9.498;2023-12-28T18:04:43;6.00;87.10
8402;DHT22;4238;48.404;9.498;2023-12-28T18:07:10;6.00;85.30
8402;DHT22;4238;48.404;9.498;2023-12-28T18:09:37;6.00;85.70
8402;DHT22;4238;48.404;9.498;2023-12-28T18:12:07;5.90;89.10
8402;DHT22;4238;48.404;9.498;2023-12-28T18:14:34;5.80;92.80
8402;DHT22;4238;48.404;9.498;2023-12-28T18:17:00;5.80;96.90
8402;DHT22;4238;48.404;9.498;2023-12-28T18:19:29;5.80;99.40
8402;DHT22;4238;48.404;9.498;2023-12-28T18:21:56;5.80;98.90
8402;DHT22;4238;48.404;9.498;2023-12-28T18:24:23;5.70;99.80
8402;DHT22;4238;48.404;9.498;2023-12-28T18:26:51;5.70;99.90
8402;DHT22;4238;48.404;9.498;2023-12-28T18:29:17;5.80;99.90
8402;DHT22;4238;48.404;9.498;2023-12-28T18:31:44;5.80;99.90
8402;DHT22;4238;48.404;9.498;2023-12-28T18:34:12;5.90;99.90
8402;DHT22;4238;48.404;9.498;2023-12-28T18:36:40;5.90;99.90
8402;DHT22;4238;48.404;9.498;2023-12-28T18:39:07;5.80;99.90
8402;DHT22;4238;48.404;9.498;2023-12-28T18:41:35;5.80;99.90
8402;DHT22;4238;48.404;9.498;2023-12-28T18:44:02;5.90;99.90
8402;DHT22;4238;48.404;9.498;2023-12-28T18:46:28;5.90;99.90
8402;DHT22;4238;48.404;9.498;2023-12-28T18:48:55;5.90;99.90
8402;DHT22;4238;48.404;9.498;2023-12-28T18:51:23;6.00;99.90
8402;DHT22;4238;48.404;9.498;2023-12-28T18:53:52;6.00;99.90
8402;DHT22;4238;48.404;9.498;2023-12-28T18:56:20;6.00;99.90
8402;DHT22;4238;48.404;9.498;2023-12-28T18:58:47;6.00;99.90
8402;DHT22;4238;48.404;9.498;2023-12-28T19:01:13;6.00;99.90
8402;DHT22;4238;48.404;9.498;2023-12-28T19:03:41;6.00;99.90
8402;DHT22;4238;48.404;9.498;2023-12-28T19:06:12;6.00;99.90
8402;DHT22;4238;48.404;9.498;2023-12-28T19:08:40;6.00;99.90
8402;DHT22;4238;48.404;9.498;2023-12-28T19:11:13;6.00;99.90
8402;DHT22;4238;48.404;9.498;2023-12-28T19:13:55;6.10;99.90
8402;DHT22;4238;48.404;9.498;2023-12-28T19:16:26;6.10;99.90
8402;DHT22;4238;48.404;9.498;2023-12-28T19:18:55;6.10;99.90
8402;DHT22;4238;48.404;9.498;2023-12-28T19:21:37;6.10;99.90
8402;DHT22;4238;48.404;9.498;2023-12-28T19:24:07;6.20;99.90
8402;DHT22;4238;48.404;9.498;2023-12-28T19:26:38;6.20;99.90
8402;DHT22;4238;48.404;9.498;2023-12-28T19:29:06;6.20;99.90
8402;DHT22;4238;48.404;9.498;2023-12-28T19:31:36;6.20;99.90
8402;DHT22;4238;48.404;9.498;2023-12-28T19:34:04;6.20;99.90
8402;DHT22;4238;48.404;9.498;2023-12-28T19:36:36;6.30;99.90
8402;DHT22;4238;48.404;9.498;2023-12-28T19:39:05;6.30;99.90
8402;DHT22;4238;48.404;9.498;2023-12-28T19:41:37;6.40;99.90
8402;DHT22;4238;48.404;9.498;2023-12-28T19:44:06;6.40;99.90
8402;DHT22;4238;48.404;9.498;2023-12-28T19:46:40;6.50;99.90
8402;DHT22;4238;48.404;9.498;2023-12-28T19:49:11;6.50;99.90
8402;DHT22;4238;48.404;9.498;2023-12-28T19:51:41;6.60;99.90
8402;DHT22;4238;48.404;9.498;2023-12-28T19:54:12;6.60;99.90
8402;DHT22;4238;48.404;9.498;2023-12-28T19:57:11;6.70;99.90
8402;DHT22;4238;48.404;9.498;2023-12-28T19:59:40;6.70;99.90
8402;DHT22;4238;48.404;9.498;2023-12-28T20:02:09;6.70;99.90
8402;DHT22;4238;48.404;9.498;2023-12-28T20:04:42;6.70;99.90
8402;DHT22;4238;48.404;9.498;2023-12-28T20:07:16;6.70;99.90
8402;DHT22;4238;48.404;9.498;2023-12-28T20:09:45;6.70;99.90
8402;DHT22;4238;48.404;9.498;2023-12-28T20:12:32;6.70;99.90
8402;DHT22;4238;48.404;9.498;2023-12-28T20:15:06;6.70;99.90
8402;DHT22;4238;48.404;9.498;2023-12-28T20:17:35;6.70;99.90
8402;DHT22;4238;48.404;9.498;2023-12-28T20:20:05;6.70;99.90
8402;DHT22;4238;48.404;9.498;2023-12-28T20:22:48;6.70;99.90
8402;DHT22;4238;48.404;9.498;2023-12-28T20:25:17;6.80;99.90
8402;DHT22;4238;48.404;9.498;2023-12-28T20:28:16;6.80;99.90
8402;DHT22;4238;48.404;9.498;2023-12-28T20:30:45;6.70;99.90
8402;DHT22;4238;48.404;9.498;2023-12-28T20:33:14;6.80;99.90
8402;DHT22;4238;48.404;9.498;2023-12-28T20:35:43;6.80;99.90
8402;DHT22;4238;48.404;9.498;2023-12-28T20:38:14;6.80;99.90
8402;DHT22;4238;48.404;9.498;2023-12-28T20:40:58;6.80;99.90
8402;DHT22;4238;48.404;9.498;2023-12-28T20:43:36;6.80;99.90
8402;DHT22;4238;48.404;9.498;2023-12-28T20:46:08;6.80;99.90
8402;DHT22;4238;48.404;9.498;2023-12-28T20:48:50;6.80;99.90
8402;DHT22;4238;48.404;9.498;2023-12-28T20:51:33;6.80;99.90
8402;DHT22;4238;48.404;9.498;2023-12-28T20:54:07;6.80;99.90
8402;DHT22;4238;48.404;9.498;2023-12-28T20:56:43;6.90;99.90
8402;DHT22;4238;48.404;9.498;2023-12-28T20:59:29;6.90;99.90
8402;DHT22;4238;48.404;9.498;2023-12-28T21:01:57;6.90;99.90
8402;DHT22;4238;48.404;9.498;2023-12-28T21:04:29;6.90;99.90
8402;DHT22;4238;48.404;9.498;2023-12-28T21:06:57;6.80;99.90
8402;DHT22;4238;48.404;9.498;2023-12-28T21:09:31;6.80;99.90
8402;DHT22;4238;48.404;9.498;2023-12-28T21:11:58;6.80;99.90
8402;DHT22;4238;48.404;9.498;2023-12-28T21:17:32;6.80;99.90
8402;DHT22;4238;48.404;9.498;2023-12-28T21:20:00;6.90;99.90
8402;DHT22;4238;48.404;9.498;2023-12-28T21:22:30;6.90;99.90
8402;DHT22;4238;48.404;9.498;2023-12-28T21:24:58;6.90;99.90
8402;DHT22;4238;48.404;9.498;2023-12-28T21:27:41;6.90;99.90
8402;DHT22;4238;48.404;9.498;2023-12-28T21:30:11;6.90;99.90
8402;DHT22;4238;48.404;9.498;2023-12-28T21:33:08;6.90;99.90
8402;DHT22;4238;48.404;9.498;2023-12-28T21:35:38;6.90;99.90
8402;DHT22;4238;48.404;9.498;2023-12-28T21:38:18;7.00;99.90